Time;durP1;ratioP1;P1;durP2;ratioP2;P2;SDS_P1;SDS_P2;PMS_P1;PMS_P2;Temp;Humidity;BMP_temperature;BMP_pressure;BME280_temperature;BME280_humidity;BME280_pressure;Samples;Min_cycle;Max_cycle;Signal;HPM_P1;HPM_P2
2022/01/16 00:04:39;;;;;;;8.75;5.90;;;14.80;65.30;;;;;;4996166;28;20433;-72
2022/01/16 00:07:06;;;;;;;10.10;6.85;;;14.80;65.60;;;;;;5031071;28;20144;-72
2022/01/16 00:09:33;;;;;;;10.27;6.70;;;14.20;65.30;;;;;;5031422;28;20060;-72
2022/01/16 00:12:00;;;;;;;10.82;7.10;;;14.60;65.30;;;;;;5031322;28;20136;-72
2022/01/16 00:14:30;;;;;;;11.32;7.15;;;14.60;61.70;;;;;;5031156;28;20053;-72
2022/01/16 00:16:57;;;;;;;10.60;7.22;;;14.60;57.50;;;;;;5030752;28;20124;-72
2022/01/16 00:19:23;;;;;;;10.23;6.55;;;14.60;65.40;;;;;;5031147;28;20128;-72
2022/01/16 00:21:50;;;;;;;9.15;6.38;;;14.40;65.60;;;;;;5031665;28;20540;-72
2022/01/16 00:24:17;;;;;;;9.82;6.55;;;14.50;62.40;;;;;;5031147;28;20139;-72
2022/01/16 00:26:44;;;;;;;10.13;6.93;;;14.60;65.50;;;;;;5030856;28;20060;-72
2022/01/16 00:29:12;;;;;;;9.23;6.68;;;14.50;65.80;;;;;;5032126;28;20049;-72
2022/01/16 00:31:40;;;;;;;10.48;7.25;;;14.50;57.60;;;;;;5030884;28;20059;-72
2022/01/16 00:34:08;;;;;;;9.57;6.43;;;14.20;63.10;;;;;;5030603;28;20132;-72
2022/01/16 00:36:35;;;;;;;10.50;7.30;;;;;;;;;;5030581;28;20064;-71
2022/01/16 00:39:02;;;;;;;9.80;6.60;;;14.40;65.90;;;;;;5030809;28;20148;-72
2022/01/16 00:41:29;;;;;;;9.98;7.07;;;14.30;65.90;;;;;;5030706;28;20065;-72
2022/01/16 00:43:55;;;;;;;12.02;7.18;;;14.30;62.20;;;;;;5030819;28;20135;-72
2022/01/16 00:46:22;;;;;;;10.85;7.32;;;14.30;65.80;;;;;;5030532;28;20132;-72
2022/01/16 00:48:50;;;;;;;10.18;7.38;;;14.30;66.10;;;;;;5031958;28;20128;-72
2022/01/16 00:51:17;;;;;;;11.90;7.20;;;14.40;65.90;;;;;;5030487;28;20057;-72
2022/01/16 00:53:44;;;;;;;10.70;7.40;;;14.40;61.40;;;;;;5031628;28;20084;-72
2022/01/16 00:56:11;;;;;;;10.20;6.82;;;14.40;65.90;;;;;;5030340;28;20411;-72
2022/01/16 00:58:38;;;;;;;11.25;7.53;;;14.30;58.90;;;;;;5030980;28;20195;-72
2022/01/16 01:01:05;;;;;;;11.25;7.63;;;14.00;65.70;;;;;;5030627;28;20072;-72
2022/01/16 01:03:32;;;;;;;10.50;6.90;;;13.80;65.70;;;;;;5031763;28;20045;-72
2022/01/16 01:06:00;;;;;;;11.40;7.97;;;14.30;66.10;;;;;;5030113;28;20133;-72
2022/01/16 01:08:29;;;;;;;11.23;7.78;;;;;;;;;;5030400;28;20073;-72
2022/01/16 01:10:57;;;;;;;11.07;7.70;;;;;;;;;;5030615;28;20060;-72
2022/01/16 01:13:31;;;;;;;12.00;7.97;;;13.90;65.80;;;;;;5030478;28;20067;-72
2022/01/16 01:16:02;;;;;;;12.05;8.38;;;;;;;;;;5030592;28;20061;-71
2022/01/16 01:18:29;;;;;;;12.57;8.15;;;14.10;66.20;;;;;;5029986;28;20060;-72
2022/01/16 01:20:57;;;;;;;12.07;8.43;;;13.80;65.80;;;;;;5030056;28;20140;-72
2022/01/16 01:23:25;;;;;;;12.80;8.43;;;14.30;66.40;;;;;;5030536;28;20057;-72
2022/01/16 01:25:52;;;;;;;12.43;8.40;;;13.60;65.80;;;;;;5030341;28;20128;-72
2022/01/16 01:28:19;;;;;;;11.98;8.52;;;14.20;66.30;;;;;;5029856;28;20141;-72
2022/01/16 01:30:46;;;;;;;13.68;9.45;;;14.00;66.00;;;;;;5030393;28;20463;-72
2022/01/16 01:33:14;;;;;;;13.27;8.48;;;;;;;;;;5030209;28;20049;-71
2022/01/16 01:35:41;;;;;;;13.43;9.10;;;14.10;66.10;;;;;;5031050;28;20050;-72
2022/01/16 01:38:09;;;;;;;15.60;9.27;;;14.10;66.40;;;;;;5030111;28;20051;-72
2022/01/16 01:40:37;;;;;;;15.10;9.48;;;14.10;66.20;;;;;;5030178;28;20132;-72
2022/01/16 01:51:01;;;;;;;14.20;9.38;;;14.10;66.50;;;;;;5030292;28;20136;-72
2022/01/16 01:51:23;;;;;;;14.23;9.40;;;14.10;66.10;;;;;;5033706;28;20053;-72
2022/01/16 01:53:51;;;;;;;14.90;9.57;;;14.10;66.20;;;;;;5033832;28;20092;-72
2022/01/16 01:56:21;;;;;;;15.98;9.90;;;13.60;65.80;;;;;;5034590;28;20057;-71
2022/01/16 01:58:48;;;;;;;15.05;10.02;;;14.20;66.30;;;;;;5033617;28;20501;-72
2022/01/16 02:01:14;;;;;;;13.50;9.30;;;14.00;66.30;;;;;;5034603;28;20128;-71
2022/01/16 02:03:43;;;;;;;15.63;10.15;;;;;;;;;;5033690;28;20084;-72
2022/01/16 02:06:11;;;;;;;14.20;9.88;;;14.10;66.20;;;;;;5032974;28;20050;-71
2022/01/16 02:08:38;;;;;;;14.82;9.93;;;14.20;66.00;;;;;;5033647;28;20132;-71
2022/01/16 02:11:05;;;;;;;15.15;10.25;;;14.00;66.20;;;;;;5033701;28;20160;-72
2022/01/16 02:13:45;;;;;;;15.90;10.48;;;14.00;65.90;;;;;;5033293;28;20542;-71
2022/01/16 02:33:21;;;;;;;13.48;9.35;;;14.20;65.90;;;;;;5033156;28;20045;-72
2022/01/16 02:35:49;;;;;;;13.82;9.90;;;14.00;65.80;;;;;;5014008;28;20526;-72
2022/01/16 02:38:16;;;;;;;15.60;10.40;;;;;;;;;;5013038;28;20053;-71
2022/01/16 02:40:50;;;;;;;14.68;9.75;;;14.10;65.70;;;;;;5021957;28;20550;-72
2022/01/16 02:43:18;;;;;;;15.95;10.10;;;14.20;58.70;;;;;;5032709;28;20069;-71
2022/01/16 02:45:48;;;;;;;14.85;10.10;;;;;;;;;;5033916;28;20136;-71
2022/01/16 02:48:15;;;;;;;15.00;10.00;;;14.30;66.00;;;;;;5032646;28;20045;-72
2022/01/16 02:50:41;;;;;;;13.80;9.90;;;14.10;65.70;;;;;;5032633;28;20053;-71
2022/01/16 02:53:11;;;;;;;14.23;9.90;;;;;;;;;;5032494;28;20072;-71
2022/01/16 02:55:40;;;;;;;15.05;10.38;;;14.30;65.60;;;;;;5032261;28;20061;-71
2022/01/16 02:58:08;;;;;;;13.15;9.38;;;14.20;62.20;;;;;;5031275;28;20057;-71
2022/01/16 03:00:35;;;;;;;14.13;9.82;;;14.10;64.00;;;;;;5032383;28;20081;-71
2022/01/16 03:03:02;;;;;;;14.40;10.15;;;14.40;65.80;;;;;;5032188;28;20079;-71
2022/01/16 03:05:29;;;;;;;15.23;10.00;;;;;;;;;;5033078;28;20605;-71
2022/01/16 03:07:55;;;;;;;15.25;10.20;;;14.70;65.60;;;;;;5032170;28;20100;-72
2022/01/16 03:10:43;;;;;;;14.90;10.13;;;14.40;65.50;;;;;;5032473;28;20140;-72
2022/01/16 03:13:11;;;;;;;13.88;9.65;;;14.30;65.70;;;;;;5033158;28;20045;-71
2022/01/16 03:15:39;;;;;;;13.13;9.75;;;13.90;65.50;;;;;;5033320;28;20176;-72
2022/01/16 03:23:42;;;;;;;14.10;10.00;;;14.40;65.50;;;;;;5008009;28;20054;-72
2022/01/16 03:26:09;;;;;;;13.68;9.38;;;14.40;65.40;;;;;;5031842;28;20133;-71
2022/01/16 03:28:37;;;;;;;13.82;10.15;;;14.30;58.80;;;;;;5031943;28;20132;-71
2022/01/16 03:31:03;;;;;;;12.82;8.93;;;14.00;59.90;;;;;;5033080;28;20132;-72
2022/01/16 03:33:30;;;;;;;12.73;9.45;;;14.40;65.50;;;;;;5031871;28;20132;-71
2022/01/16 03:35:57;;;;;;;15.18;10.18;;;14.40;65.30;;;;;;5031717;28;20137;-72
2022/01/16 03:38:24;;;;;;;14.80;9.70;;;14.40;60.80;;;;;;5032672;28;20482;-71
2022/01/16 03:40:51;;;;;;;14.48;9.93;;;14.40;65.10;;;;;;5031852;28;20140;-72
2022/01/16 03:43:18;;;;;;;14.50;10.10;;;;;;;;;;5031754;28;20140;-71
2022/01/16 03:45:47;;;;;;;14.23;9.63;;;14.30;65.10;;;;;;5031589;28;20144;-72
2022/01/16 03:48:14;;;;;;;13.77;9.65;;;;;;;;;;5031479;28;20053;-71
2022/01/16 03:50:41;;;;;;;13.32;9.55;;;14.30;65.30;;;;;;5031351;28;20477;-72
2022/01/16 03:53:08;;;;;;;13.60;9.15;;;14.40;65.40;;;;;;5031793;28;20144;-72
2022/01/16 03:55:35;;;;;;;14.18;9.32;;;14.10;63.60;;;;;;5031316;28;20140;-71
2022/01/16 03:58:02;;;;;;;14.38;10.15;;;;;;;;;;5031470;28;20510;-72
2022/01/16 04:00:29;;;;;;;15.75;10.80;;;14.20;64.90;;;;;;5032457;28;20128;-72
2022/01/16 04:02:57;;;;;;;13.40;9.30;;;14.40;65.10;;;;;;5031401;28;20566;-71
2022/01/16 04:05:24;;;;;;;12.98;9.52;;;14.10;62.10;;;;;;5032323;28;20136;-72
2022/01/16 04:07:51;;;;;;;14.75;10.15;;;;;;;;;;5032462;28;20136;-71
2022/01/16 04:10:17;;;;;;;12.65;9.02;;;14.50;65.30;;;;;;5031024;28;20063;-72
2022/01/16 04:12:46;;;;;;;13.52;9.50;;;14.20;64.90;;;;;;5032281;28;20045;-72
2022/01/16 04:17:59;;;;;;;13.98;9.88;;;14.80;65.50;;;;;;5031036;28;20049;-72
2022/01/16 04:20:26;;;;;;;13.63;9.07;;;14.40;65.00;;;;;;5030486;28;20091;-72
2022/01/16 04:22:52;;;;;;;12.57;8.93;;;14.60;65.10;;;;;;5031899;28;20710;-72
2022/01/16 04:25:19;;;;;;;12.18;8.70;;;15.20;60.30;;;;;;5031125;28;20144;-72
2022/01/16 04:27:46;;;;;;;13.88;9.75;;;14.50;65.20;;;;;;5030589;28;20406;-72
2022/01/16 04:30:13;;;;;;;12.45;8.73;;;14.60;65.30;;;;;;5031122;28;20049;-72
2022/01/16 04:32:40;;;;;;;13.43;9.27;;;14.40;65.20;;;;;;5031931;28;20057;-72
2022/01/16 04:35:09;;;;;;;13.48;9.30;;;14.50;65.00;;;;;;5032147;28;20049;-72
2022/01/16 04:37:36;;;;;;;14.07;9.13;;;14.40;65.20;;;;;;5030459;28;20140;-72
2022/01/16 04:40:04;;;;;;;13.52;9.40;;;14.20;64.80;;;;;;5030949;28;20502;-72
2022/01/16 04:45:15;;;;;;;13.95;9.68;;;13.70;64.60;;;;;;5030912;28;20048;-72
2022/01/16 04:47:42;;;;;;;12.52;9.00;;;;;;;;;;5030403;28;20067;-71
2022/01/16 04:50:13;;;;;;;13.32;9.68;;;14.60;65.00;;;;;;5030326;28;20064;-72
2022/01/16 04:52:40;;;;;;;14.90;9.40;;;;;;;;;;5030856;28;20140;-72
2022/01/16 04:55:08;;;;;;;12.50;8.95;;;14.60;59.90;;;;;;5030257;28;20107;-72
2022/01/16 04:57:36;;;;;;;12.65;8.90;;;14.10;64.70;;;;;;5030398;28;20544;-72
2022/01/16 05:00:05;;;;;;;12.05;8.50;;;14.80;65.10;;;;;;5030733;28;20092;-72
2022/01/16 05:02:32;;;;;;;15.82;9.55;;;14.60;60.20;;;;;;5030637;28;20136;-72
2022/01/16 05:04:59;;;;;;;13.50;9.20;;;14.10;64.80;;;;;;5030484;28;20140;-72
2022/01/16 05:07:27;;;;;;;13.77;8.43;;;14.60;65.10;;;;;;5030234;28;20053;-72
2022/01/16 05:09:54;;;;;;;13.80;9.07;;;;;;;;;;5030705;28;20144;-72
2022/01/16 05:12:28;;;;;;;14.27;9.35;;;;;;;;;;5030476;28;20136;-72
2022/01/16 05:17:39;;;;;;;14.90;9.13;;;14.60;65.10;;;;;;5030181;28;20053;-72
2022/01/16 05:20:06;;;;;;;13.05;9.00;;;14.50;65.00;;;;;;5031915;28;20124;-72
2022/01/16 05:22:36;;;;;;;14.80;9.10;;;14.60;65.00;;;;;;5013024;28;20125;-72
2022/01/16 05:25:03;;;;;;;13.07;8.68;;;14.30;63.90;;;;;;5014647;28;20081;-72
2022/01/16 05:27:30;;;;;;;12.20;8.60;;;14.10;64.50;;;;;;5014373;28;20546;-72
2022/01/16 05:29:57;;;;;;;12.45;8.68;;;14.60;61.10;;;;;;5014311;28;20140;-71
2022/01/16 05:32:24;;;;;;;13.48;8.57;;;14.10;64.50;;;;;;5014553;28;20140;-72
2022/01/16 05:34:51;;;;;;;14.40;9.02;;;14.60;56.70;;;;;;5030980;28;20053;-72
2022/01/16 05:37:18;;;;;;;14.15;8.63;;;14.10;64.50;;;;;;5033560;28;20056;-72
2022/01/16 05:39:47;;;;;;;12.98;8.52;;;14.60;65.00;;;;;;5033584;28;20673;-71
2022/01/16 05:42:14;;;;;;;13.32;8.88;;;13.90;64.40;;;;;;5034072;28;20061;-72
2022/01/16 05:44:41;;;;;;;13.77;9.05;;;;;;;;;;5033763;28;20128;-71
2022/01/16 05:47:12;;;;;;;14.18;8.93;;;14.60;64.70;;;;;;5034599;28;20049;-72
2022/01/16 05:49:39;;;;;;;13.82;9.10;;;;;;;;;;5033676;28;20049;-72
2022/01/16 05:52:07;;;;;;;14.40;9.13;;;14.70;64.70;;;;;;5033906;28;20056;-72
2022/01/16 05:54:33;;;;;;;13.60;9.05;;;14.10;61.30;;;;;;5034632;28;20128;-72
2022/01/16 05:57:01;;;;;;;13.48;8.85;;;14.70;64.90;;;;;;5033696;28;20145;-72
2022/01/16 05:59:28;;;;;;;12.07;8.63;;;14.70;64.90;;;;;;5034813;28;20487;-72
2022/01/16 06:01:55;;;;;;;14.70;8.57;;;;;;;;;;5033533;28;20517;-70
2022/01/16 06:04:22;;;;;;;13.30;8.55;;;14.50;64.50;;;;;;5033403;28;20064;-72
2022/01/16 06:06:49;;;;;;;12.65;8.82;;;14.10;64.30;;;;;;5034410;28;20128;-72
2022/01/16 06:09:16;;;;;;;14.75;8.80;;;14.70;60.40;;;;;;5033561;28;20550;-72
2022/01/16 06:11:42;;;;;;;12.15;8.60;;;14.20;64.40;;;;;;5033063;28;20120;-72
2022/01/16 06:14:10;;;;;;;12.77;8.55;;;14.70;64.80;;;;;;5034720;28;20513;-72
2022/01/16 06:16:38;;;;;;;13.80;9.27;;;14.60;64.80;;;;;;5033191;28;20136;-72
2022/01/16 06:19:04;;;;;;;14.25;8.93;;;14.70;64.60;;;;;;5034398;28;20045;-72
2022/01/16 06:21:31;;;;;;;12.88;8.85;;;14.70;64.60;;;;;;5032688;28;20140;-72
2022/01/16 06:23:58;;;;;;;14.68;9.45;;;;;;;;;;5033255;28;20152;-71
2022/01/16 06:26:25;;;;;;;14.23;9.02;;;14.30;64.70;;;;;;5033044;28;20092;-72
2022/01/16 06:28:52;;;;;;;14.75;9.25;;;;;;;;;;5033440;28;20514;-72
2022/01/16 06:31:20;;;;;;;13.40;9.48;;;15.00;65.00;;;;;;5032892;28;20061;-72
2022/01/16 06:33:47;;;;;;;13.43;8.85;;;14.70;64.60;;;;;;5033631;28;20052;-72
2022/01/16 06:36:14;;;;;;;14.98;9.25;;;14.00;64.30;;;;;;5032970;28;20413;-72
2022/01/16 06:38:40;;;;;;;14.30;9.15;;;14.60;60.10;;;;;;5033025;28;20053;-72
2022/01/16 06:41:07;;;;;;;12.38;8.05;;;14.70;64.80;;;;;;5032519;28;20132;-72
2022/01/16 06:43:34;;;;;;;13.80;8.25;;;14.60;64.60;;;;;;5032960;28;20140;-72
2022/01/16 06:46:00;;;;;;;13.73;8.45;;;14.60;60.60;;;;;;5032787;28;20510;-72
2022/01/16 06:48:30;;;;;;;13.88;9.18;;;14.60;61.40;;;;;;5032800;28;20133;-72
2022/01/16 06:50:57;;;;;;;12.20;8.07;;;;;;;;;;5032583;28;20144;-72
2022/01/16 06:53:24;;;;;;;14.63;8.88;;;14.10;64.30;;;;;;5032855;28;20061;-72
2022/01/16 06:55:50;;;;;;;11.63;8.57;;;15.30;64.90;;;;;;5033576;28;20128;-72
2022/01/16 06:58:17;;;;;;;13.98;8.90;;;14.40;60.80;;;;;;5032690;28;20061;-72
2022/01/16 07:00:44;;;;;;;13.10;8.48;;;14.50;64.80;;;;;;5033537;28;20137;-72
2022/01/16 07:03:12;;;;;;;13.60;8.52;;;;;;;;;;5032480;28;20062;-72
2022/01/16 07:05:40;;;;;;;13.80;8.65;;;14.60;64.60;;;;;;5033553;28;20056;-72
2022/01/16 07:08:07;;;;;;;16.70;8.70;;;;;;;;;;5032582;28;20135;-71
2022/01/16 07:10:34;;;;;;;13.57;9.15;;;14.50;64.80;;;;;;5033286;28;20041;-72
2022/01/16 07:13:00;;;;;;;14.23;9.25;;;14.40;64.80;;;;;;5032681;28;20470;-72
2022/01/16 07:15:28;;;;;;;14.80;9.52;;;;;;;;;;5032178;28;20060;-72
2022/01/16 07:17:55;;;;;;;16.75;9.52;;;14.40;64.90;;;;;;5032362;28;20481;-72
2022/01/16 07:20:22;;;;;;;13.77;9.50;;;;;;;;;;5032493;28;20141;-72
2022/01/16 07:22:50;;;;;;;15.50;9.38;;;14.30;64.60;;;;;;5032183;28;20061;-72
2022/01/16 07:25:17;;;;;;;14.80;9.25;;;14.20;64.70;;;;;;5033201;28;20125;-72
2022/01/16 07:27:44;;;;;;;15.75;9.65;;;14.40;61.00;;;;;;5031727;28;20128;-72
2022/01/16 07:30:11;;;;;;;14.45;9.43;;;14.20;65.00;;;;;;5032237;28;20049;-72
2022/01/16 07:32:38;;;;;;;13.90;8.82;;;;;;;;;;5032212;28;20063;-72
2022/01/16 07:35:06;;;;;;;14.30;9.07;;;14.40;56.80;;;;;;5032823;28;20111;-71
2022/01/16 07:37:33;;;;;;;14.23;9.27;;;14.50;65.00;;;;;;5032792;28;20055;-72
2022/01/16 07:40:01;;;;;;;13.90;9.43;;;14.40;56.60;;;;;;5031628;28;20049;-71
2022/01/16 07:42:28;;;;;;;15.25;9.48;;;;;;;;;;5031876;28;20083;-71
2022/01/16 07:44:55;;;;;;;15.88;9.80;;;14.10;64.60;;;;;;5030802;28;20478;-72
2022/01/16 07:47:21;;;;;;;16.77;9.70;;;14.20;64.60;;;;;;5031543;28;20711;-72
2022/01/16 07:49:48;;;;;;;14.95;9.48;;;14.50;62.30;;;;;;5031634;28;20103;-71
2022/01/16 07:52:15;;;;;;;14.88;9.90;;;14.30;64.60;;;;;;5031402;28;20055;-72
2022/01/16 07:54:42;;;;;;;14.45;9.30;;;14.40;64.70;;;;;;5031632;28;20499;-72
2022/01/16 07:57:10;;;;;;;15.07;10.30;;;14.30;59.60;;;;;;5032396;28;20132;-71
2022/01/16 07:59:36;;;;;;;15.50;9.65;;;14.50;58.00;;;;;;5031586;28;20045;-71
2022/01/16 08:02:04;;;;;;;17.05;11.07;;;14.40;64.80;;;;;;5031098;28;20144;-72
2022/01/16 08:04:31;;;;;;;14.10;9.23;;;;;;;;;;5031533;28;20056;-71
2022/01/16 08:06:57;;;;;;;15.63;8.95;;;14.20;64.50;;;;;;5030938;28;20092;-72
2022/01/16 08:09:24;;;;;;;15.85;9.50;;;13.80;64.30;;;;;;5031522;28;20133;-72
2022/01/16 08:11:51;;;;;;;13.98;9.25;;;14.40;61.00;;;;;;5031107;28;20127;-72
2022/01/16 08:14:19;;;;;;;17.23;9.80;;;14.30;64.90;;;;;;5030818;28;20132;-72
2022/01/16 08:16:46;;;;;;;15.15;9.65;;;14.30;64.60;;;;;;5031134;28;20139;-72
2022/01/16 08:19:12;;;;;;;16.08;9.93;;;14.40;64.60;;;;;;5031186;28;20129;-72
2022/01/16 08:21:39;;;;;;;15.52;9.55;;;14.40;63.80;;;;;;5031627;28;20132;-72
2022/01/16 08:24:07;;;;;;;14.07;9.55;;;14.40;64.90;;;;;;5030725;28;20140;-72
2022/01/16 08:26:34;;;;;;;18.73;10.20;;;14.30;64.90;;;;;;5030764;28;20467;-72
2022/01/16 08:29:00;;;;;;;18.77;10.65;;;14.50;64.90;;;;;;5031070;28;20132;-72
2022/01/16 08:31:29;;;;;;;16.73;10.05;;;13.80;59.70;;;;;;5031102;28;20053;-71
2022/01/16 08:33:55;;;;;;;18.30;10.88;;;13.90;59.10;;;;;;5031986;28;20124;-72
2022/01/16 08:36:22;;;;;;;18.80;10.60;;;15.40;65.10;;;;;;5031893;28;20148;-72
2022/01/16 08:38:49;;;;;;;19.23;10.75;;;14.00;64.30;;;;;;5030396;28;20132;-72
2022/01/16 08:41:16;;;;;;;18.23;10.40;;;14.10;57.10;;;;;;5030298;28;20059;-72
2022/01/16 08:43:43;;;;;;;17.65;10.70;;;14.70;64.70;;;;;;5030712;28;20132;-72
2022/01/16 08:46:10;;;;;;;17.20;10.40;;;14.10;64.00;;;;;;5029931;28;20391;-72
2022/01/16 08:48:38;;;;;;;17.88;10.43;;;14.80;64.60;;;;;;5031575;28;20117;-72
2022/01/16 08:51:05;;;;;;;17.13;10.13;;;14.70;64.40;;;;;;5027416;28;20051;-72
2022/01/16 08:53:32;;;;;;;16.48;10.52;;;;;;;;;;5030778;28;20057;-71
2022/01/16 08:55:59;;;;;;;16.63;10.35;;;15.50;64.60;;;;;;5033351;28;20128;-72
2022/01/16 08:58:26;;;;;;;16.17;9.32;;;;;;;;;;5034853;28;20071;-72
2022/01/16 09:00:53;;;;;;;17.80;9.68;;;14.30;63.90;;;;;;5034625;28;20057;-72
2022/01/16 09:03:20;;;;;;;16.15;9.60;;;;;;;;;;5033978;28;20061;-71
2022/01/16 09:05:49;;;;;;;16.05;9.82;;;15.00;64.10;;;;;;5033723;28;20128;-72
2022/01/16 09:08:16;;;;;;;16.42;10.00;;;15.80;64.50;;;;;;5032584;28;20041;-72
2022/01/16 09:10:42;;;;;;;16.38;9.55;;;15.20;58.20;;;;;;5034347;28;20088;-72
2022/01/16 09:13:11;;;;;;;17.23;10.45;;;15.00;64.00;;;;;;5033870;28;20437;-72
2022/01/16 09:15:38;;;;;;;16.02;9.85;;;15.20;63.80;;;;;;5035095;28;20042;-72
2022/01/16 09:18:05;;;;;;;13.85;9.23;;;14.30;62.00;;;;;;5033885;28;20129;-72
2022/01/16 09:20:31;;;;;;;16.27;9.43;;;15.20;63.80;;;;;;5033413;28;20052;-71
2022/01/16 09:23:00;;;;;;;16.63;9.38;;;15.10;55.70;;;;;;5035035;28;20128;-72
2022/01/16 09:25:27;;;;;;;15.23;9.30;;;;;;;;;;5033937;28;20136;-71
2022/01/16 09:27:53;;;;;;;16.73;9.95;;;14.90;63.70;;;;;;5033968;28;20128;-72
2022/01/16 09:30:21;;;;;;;14.55;9.63;;;14.30;63.20;;;;;;5033595;28;20133;-72
2022/01/16 09:32:47;;;;;;;18.30;10.23;;;15.30;63.60;;;;;;5033770;28;20132;-71
2022/01/16 09:35:14;;;;;;;14.77;8.82;;;14.60;63.30;;;;;;5032133;28;20495;-71
2022/01/16 09:37:41;;;;;;;12.65;8.82;;;15.20;55.60;;;;;;5033481;28;20549;-71
2022/01/16 09:40:10;;;;;;;13.75;8.73;;;15.30;63.90;;;;;;5032981;28;20048;-72
2022/01/16 09:42:37;;;;;;;14.02;9.10;;;;;;;;;;5028725;28;20124;-71
2022/01/16 09:45:05;;;;;;;14.93;9.32;;;15.30;63.70;;;;;;5032980;28;20737;-71
2022/01/16 09:47:32;;;;;;;16.02;9.50;;;15.30;63.60;;;;;;5034510;28;20438;-71
2022/01/16 09:49:59;;;;;;;15.43;9.70;;;14.50;63.40;;;;;;5032640;28;20041;-71
2022/01/16 09:52:25;;;;;;;15.32;10.07;;;15.30;58.40;;;;;;5033206;28;20045;-71
2022/01/16 09:54:52;;;;;;;14.38;9.13;;;15.20;63.80;;;;;;5033405;28;20084;-71
2022/01/16 09:57:20;;;;;;;17.35;10.10;;;16.20;64.00;;;;;;5034233;28;20081;-71
2022/01/16 09:59:47;;;;;;;16.48;8.90;;;;;;;;;;5034036;28;20041;-71
2022/01/16 10:02:14;;;;;;;14.85;9.43;;;16.10;64.10;;;;;;5033327;28;20051;-71
2022/01/16 10:04:42;;;;;;;15.23;9.00;;;15.40;63.70;;;;;;5033106;28;20136;-71
2022/01/16 10:07:09;;;;;;;15.82;9.63;;;15.30;63.40;;;;;;5029525;28;20049;-71
2022/01/16 10:09:36;;;;;;;14.65;9.00;;;15.30;63.40;;;;;;5033275;28;20124;-72
2022/01/16 10:12:13;;;;;;;14.00;8.70;;;15.30;63.40;;;;;;5032919;28;20708;-72
2022/01/16 10:14:47;;;;;;;14.70;8.98;;;15.30;55.40;;;;;;5032804;28;20053;-72
2022/01/16 10:17:14;;;;;;;12.82;8.52;;;15.40;63.40;;;;;;5031784;28;20091;-72
2022/01/16 10:19:41;;;;;;;17.42;9.43;;;15.40;63.60;;;;;;5032728;28;20053;-72
2022/01/16 10:22:09;;;;;;;18.65;9.43;;;15.40;56.40;;;;;;5033296;28;20534;-72
2022/01/16 10:24:39;;;;;;;17.42;9.65;;;;;;;;;;5032844;28;20057;-72
2022/01/16 10:27:17;;;;;;;18.58;9.73;;;15.50;65.50;;;;;;5032549;28;20052;-72
2022/01/16 10:29:48;;;;;;;17.80;9.65;;;14.50;57.80;;;;;;5032918;28;20403;-72
2022/01/16 10:32:19;;;;;;;16.88;9.20;;;16.20;65.60;;;;;;5030321;28;20057;-72
2022/01/16 10:34:46;;;;;;;16.17;9.38;;;;;;;;;;5032390;28;20463;-72
2022/01/16 10:37:20;;;;;;;16.63;8.75;;;16.30;66.90;;;;;;5034083;28;20049;-72
2022/01/16 10:39:55;;;;;;;16.50;8.43;;;15.60;66.20;;;;;;5033324;28;20133;-72
2022/01/16 10:42:23;;;;;;;13.75;8.82;;;;;;;;;;5032930;28;20136;-72
2022/01/16 10:45:04;;;;;;;14.80;8.65;;;14.90;65.90;;;;;;5032991;28;20054;-72
2022/01/16 10:47:35;;;;;;;14.40;8.15;;;14.80;58.70;;;;;;5032982;28;20136;-72
2022/01/16 10:50:06;;;;;;;16.05;9.10;;;15.40;66.00;;;;;;5032659;28;20056;-71
2022/01/16 10:52:33;;;;;;;17.23;8.93;;;;;;;;;;5032587;28;20418;-71
2022/01/16 10:55:07;;;;;;;14.70;8.23;;;15.60;65.90;;;;;;5032172;28;20132;-71
2022/01/16 10:57:34;;;;;;;16.13;8.68;;;16.30;66.30;;;;;;5032597;28;20502;-72
2022/01/16 11:00:08;;;;;;;17.70;9.68;;;15.50;65.80;;;;;;5032691;28;20183;-72
2022/01/16 11:02:35;;;;;;;12.85;7.85;;;;;;;;;;5032466;28;20136;-72
2022/01/16 11:05:07;;;;;;;13.73;8.25;;;15.50;57.90;;;;;;5032581;28;20136;-72
2022/01/16 11:07:34;;;;;;;12.32;8.10;;;15.50;65.50;;;;;;5032007;28;20128;-71
2022/01/16 11:10:02;;;;;;;12.30;7.38;;;16.40;65.90;;;;;;5033048;28;20138;-72
2022/01/16 11:12:35;;;;;;;15.43;8.15;;;15.50;65.60;;;;;;5033107;28;20041;-72
2022/01/16 11:15:03;;;;;;;14.60;8.27;;;15.70;65.40;;;;;;5032246;28;20136;-72
2022/01/16 11:17:31;;;;;;;13.77;7.68;;;15.50;57.50;;;;;;5032868;28;20073;-72
2022/01/16 11:19:58;;;;;;;12.93;7.72;;;16.30;65.50;;;;;;5032395;28;20049;-72
2022/01/16 11:22:34;;;;;;;13.73;7.55;;;15.70;65.40;;;;;;5031615;28;20129;-72
2022/01/16 11:25:11;;;;;;;11.15;7.03;;;15.60;65.00;;;;;;5033649;28;20073;-72
2022/01/16 11:27:38;;;;;;;15.80;8.18;;;15.10;61.00;;;;;;5031995;28;20057;-72
2022/01/16 11:30:06;;;;;;;11.07;7.40;;;15.00;64.20;;;;;;5031926;28;20041;-74
2022/01/16 11:32:34;;;;;;;11.18;6.95;;;15.50;65.10;;;;;;5031776;28;20133;-72
2022/01/16 11:35:01;;;;;;;11.48;7.13;;;16.30;65.30;;;;;;5031746;28;20125;-74
2022/01/16 11:37:27;;;;;;;11.93;6.57;;;15.60;60.90;;;;;;5031198;28;20136;-72
2022/01/16 11:39:54;;;;;;;13.77;7.15;;;15.40;60.10;;;;;;5029760;28;20124;-73
2022/01/16 11:42:27;;;;;;;11.77;6.70;;;;;;;;;;5014413;28;20128;-70
2022/01/16 11:44:54;;;;;;;13.00;7.78;;;;;;;;;;5018612;28;20406;-72
2022/01/16 11:47:21;;;;;;;17.20;7.57;;;15.40;64.90;;;;;;5029907;28;20140;-72
2022/01/16 11:49:50;;;;;;;14.10;7.60;;;16.20;65.50;;;;;;5031085;28;20487;-72
2022/01/16 11:52:18;;;;;;;16.10;7.85;;;15.20;59.50;;;;;;5029979;28;20080;-72
2022/01/16 11:54:45;;;;;;;11.80;7.40;;;15.20;65.30;;;;;;5030527;28;20051;-72
2022/01/16 11:57:20;;;;;;;11.98;6.70;;;15.30;57.50;;;;;;5030755;28;20132;-71
2022/01/16 11:59:48;;;;;;;11.13;6.53;;;;;;;;;;5030863;28;20132;-71
2022/01/16 12:02:22;;;;;;;12.23;6.55;;;15.20;57.40;;;;;;5031888;28;20055;-71
2022/01/16 12:05:00;;;;;;;14.20;6.88;;;15.20;61.10;;;;;;5030643;28;20136;-71
2022/01/16 12:07:58;;;;;;;11.88;6.28;;;14.60;62.00;;;;;;5030848;28;20068;-71
2022/01/16 12:10:39;;;;;;;12.32;6.85;;;14.90;63.00;;;;;;5031343;28;20128;-71
2022/01/16 12:13:12;;;;;;;11.93;6.45;;;15.10;65.50;;;;;;5032400;28;20045;-71
2022/01/16 12:15:38;;;;;;;10.35;6.88;;;15.00;65.40;;;;;;5031942;28;20045;-71
2022/01/16 12:18:05;;;;;;;11.25;6.68;;;15.00;60.30;;;;;;5031238;28;20124;-71
2022/01/16 12:20:33;;;;;;;13.55;6.88;;;15.00;65.50;;;;;;5031688;28;20061;-71
2022/01/16 12:23:01;;;;;;;10.57;6.85;;;14.60;64.90;;;;;;5030398;28;20558;-71
2022/01/16 12:25:29;;;;;;;11.90;6.43;;;14.90;65.10;;;;;;5031987;28;20053;-71
2022/01/16 12:27:57;;;;;;;10.77;6.45;;;14.70;62.30;;;;;;5031278;28;20065;-71
2022/01/16 12:30:26;;;;;;;9.30;5.85;;;14.80;61.70;;;;;;5030473;28;20108;-71
2022/01/16 12:32:57;;;;;;;9.70;5.72;;;14.90;65.20;;;;;;5030321;28;20094;-71
2022/01/16 12:36:09;;;;;;;12.63;5.93;;;14.70;65.30;;;;;;5028195;28;20136;-70
2022/01/16 12:39:08;;;;;;;12.88;5.95;;;14.80;57.50;;;;;;5008605;28;20402;-71
2022/01/16 12:41:41;;;;;;;10.10;6.07;;;14.90;65.60;;;;;;4973695;28;20058;-71
2022/01/16 12:44:09;;;;;;;10.98;6.28;;;14.70;57.50;;;;;;5020262;28;20117;-71
2022/01/16 12:46:37;;;;;;;8.73;5.20;;;14.70;57.50;;;;;;5031048;28;20558;-70
2022/01/16 12:49:05;;;;;;;9.77;5.70;;;14.70;62.60;;;;;;5028969;28;20137;-71
2022/01/16 12:51:34;;;;;;;8.35;5.80;;;14.70;63.30;;;;;;5030130;28;20469;-71
2022/01/16 12:54:06;;;;;;;9.15;5.65;;;14.70;57.40;;;;;;5027665;28;20132;-71
2022/01/16 12:56:35;;;;;;;8.75;5.43;;;14.50;65.40;;;;;;5031520;28;20130;-71
2022/01/16 12:59:16;;;;;;;8.40;5.60;;;14.70;57.50;;;;;;5030141;28;20099;-71
2022/01/16 13:01:48;;;;;;;9.35;4.90;;;14.70;63.80;;;;;;5029064;28;20129;-70
2022/01/16 13:04:24;;;;;;;8.85;5.25;;;14.70;65.30;;;;;;5030427;28;20050;-71
2022/01/16 13:06:51;;;;;;;9.68;5.20;;;14.60;65.10;;;;;;5028811;28;20045;-71
2022/01/16 13:09:19;;;;;;;9.10;5.40;;;14.60;65.50;;;;;;5030383;28;20124;-71
2022/01/16 13:11:47;;;;;;;8.00;5.00;;;14.30;65.30;;;;;;5030217;28;20049;-71
2022/01/16 13:14:14;;;;;;;8.27;5.25;;;14.70;65.30;;;;;;5030047;28;20132;-71
2022/01/16 13:16:42;;;;;;;8.65;4.93;;;14.60;65.10;;;;;;5030037;28;20498;-71
2022/01/16 13:19:12;;;;;;;8.18;5.25;;;14.60;57.40;;;;;;5030625;28;20160;-70
2022/01/16 13:21:57;;;;;;;8.35;4.82;;;14.60;65.20;;;;;;5029688;28;20057;-71
2022/01/16 13:24:27;;;;;;;7.35;5.35;;;14.60;65.30;;;;;;5031658;28;20409;-71
2022/01/16 13:26:54;;;;;;;9.10;4.97;;;14.60;65.30;;;;;;5031200;28;20414;-70
2022/01/16 13:29:21;;;;;;;7.45;4.30;;;;;;;;;;5030282;28;20132;-70
2022/01/16 13:31:48;;;;;;;8.27;4.32;;;14.70;65.30;;;;;;5030385;28;20380;-71
2022/01/16 13:34:16;;;;;;;7.68;4.65;;;14.50;58.60;;;;;;5030488;28;20133;-70
2022/01/16 13:36:50;;;;;;;6.57;4.40;;;14.70;65.50;;;;;;5030295;28;20466;-70